Terminal Aerodrome Forecast
Issued by NWS Jackson, KY

Home | Current Version | Previous Version | Text Only | Print | Product List | Glossary On
Versions: 1 2 3 4 5 6 7 8 9 10 11 12 13 14 15 16 17 18 19
806
FTUS43 KJKL 182041 AAB
TAFJKL
TAF AMD
KJKL 182041Z 1821/1918 VRB05KT P6SM OVC006
      TEMPO 1821/1823 3SM -DZ BR BKN003
     FM190000 VRB03KT P6SM OVC008
     FM191400 VRB05KT P6SM SCT008=

USA.gov is the U.S. government's official web portal to all federal, state and local government web resources and services.